createdAt,value
2018-08-10T00:00:58.313Z,90.51
2018-08-10T00:01:58.320Z,90.89
2018-08-10T00:02:58.337Z,91.37
2018-08-10T00:03:58.354Z,90.22
2018-08-10T00:04:58.367Z,91.18
2018-08-10T00:05:58.383Z,90.80
2018-08-10T00:06:58.405Z,90.03
2018-08-10T00:07:58.415Z,89.45
2018-08-10T00:08:58.485Z,91.47
2018-08-10T00:09:58.447Z,90.37
2018-08-10T00:10:58.464Z,90.31
2018-08-10T00:11:58.480Z,91.37
2018-08-10T00:12:58.498Z,90.75
2018-08-10T00:13:58.517Z,90.37
2018-08-10T00:14:58.526Z,90.08
2018-08-10T00:15:58.541Z,90.17
2018-08-10T00:16:58.558Z,90.37
2018-08-10T00:17:58.575Z,89.40
2018-08-10T00:18:58.595Z,88.83
2018-08-10T00:19:58.603Z,89.12
2018-08-10T00:20:58.620Z,89.69
2018-08-10T00:21:58.634Z,88.73
2018-08-10T00:22:58.653Z,89.22
2018-08-10T00:23:58.666Z,88.54
2018-08-10T00:24:58.682Z,88.45
2018-08-10T00:25:58.697Z,87.77
2018-08-10T00:26:58.734Z,87.58
2018-08-10T00:27:58.729Z,87.77
2018-08-10T00:28:58.744Z,87.68
2018-08-10T00:29:58.763Z,88.16
2018-08-10T00:30:58.777Z,87.68
2018-08-10T00:31:58.792Z,87.87
2018-08-10T00:32:58.812Z,87.49
2018-08-10T00:33:58.823Z,87.44
2018-08-10T00:34:58.842Z,88.49
2018-08-10T00:35:58.854Z,87.87
2018-08-10T00:36:58.869Z,87.49
2018-08-10T00:37:58.892Z,87.73
2018-08-10T00:38:58.901Z,88.31
2018-08-10T00:39:58.916Z,88.98
2018-08-10T00:40:58.932Z,89.65
2018-08-10T00:41:58.950Z,88.59
2018-08-10T00:42:58.966Z,88.31
2018-08-10T00:43:58.978Z,88.40
2018-08-10T00:44:58.997Z,87.73
2018-08-10T00:45:59.011Z,88.02
2018-08-10T00:46:59.025Z,88.49
2018-08-10T00:47:59.039Z,87.82
2018-08-10T00:48:59.058Z,88.40
2018-08-10T00:49:59.073Z,87.44
2018-08-10T00:50:59.136Z,87.73
2018-08-10T00:51:59.104Z,87.35
2018-08-10T00:52:59.117Z,87.35
2018-08-10T00:53:59.132Z,87.44
2018-08-10T00:54:59.153Z,87.54
2018-08-10T00:55:59.164Z,86.58
2018-08-10T00:56:59.179Z,86.29
2018-08-10T00:57:59.196Z,87.15
2018-08-10T00:58:59.259Z,86.00
2018-08-10T00:59:59.231Z,85.52
2018-08-10T01:00:59.240Z,85.24
2018-08-10T01:01:59.255Z,85.42
2018-08-10T01:02:59.271Z,85.81
2018-08-10T01:03:59.287Z,85.91
2018-08-10T01:04:59.305Z,85.62
2018-08-10T01:05:59.318Z,86.00
2018-08-10T01:06:59.334Z,86.00
2018-08-10T01:07:59.349Z,85.91
2018-08-10T01:08:59.365Z,86.00
2018-08-10T01:09:59.380Z,85.33
2018-08-10T01:10:59.394Z,85.52
2018-08-10T01:11:59.410Z,85.33
2018-08-10T01:12:59.436Z,84.56
2018-08-10T01:13:59.441Z,84.66
2018-08-10T01:14:59.456Z,85.19
2018-08-10T01:15:59.472Z,85.10
2018-08-10T01:16:59.487Z,85.58
2018-08-10T01:17:59.504Z,85.33
2018-08-10T01:18:59.560Z,85.00
2018-08-10T01:19:59.537Z,85.42
2018-08-10T01:20:59.551Z,84.91
2018-08-10T01:21:59.570Z,84.91
2018-08-10T01:22:59.583Z,84.56
2018-08-10T01:23:59.613Z,85.10
2018-08-10T01:24:59.618Z,85.48
2018-08-10T01:25:59.627Z,84.91
2018-08-10T01:26:59.645Z,84.61
2018-08-10T01:27:59.670Z,85.19
2018-08-10T01:28:59.808Z,85.00
2018-08-10T01:29:59.695Z,85.10
2018-08-10T01:30:59.708Z,84.23
2018-08-10T01:31:59.721Z,84.81
2018-08-10T01:32:59.735Z,85.28
2018-08-10T01:33:59.752Z,84.23
2018-08-10T01:34:59.767Z,84.61
2018-08-10T01:35:59.782Z,84.42
2018-08-10T01:36:59.798Z,84.61
2018-08-10T01:37:59.811Z,84.04
2018-08-10T01:38:59.829Z,84.14
2018-08-10T01:39:59.844Z,84.52
2018-08-10T01:40:59.859Z,83.94
2018-08-10T01:41:59.877Z,84.33
2018-08-10T01:42:59.889Z,84.14
2018-08-10T01:43:59.909Z,84.23
2018-08-10T01:44:59.921Z,84.23
2018-08-10T01:45:59.955Z,84.33
2018-08-10T01:46:59.952Z,84.33
2018-08-10T01:47:59.970Z,84.33
2018-08-10T01:48:59.981Z,84.42
2018-08-10T01:49:59.997Z,83.65
2018-08-10T01:51:00.013Z,83.85
2018-08-10T01:52:00.030Z,84.33
2018-08-10T01:53:00.045Z,84.14
2018-08-10T01:54:00.059Z,84.91
2018-08-10T01:55:00.093Z,84.81
2018-08-10T01:56:00.091Z,84.52
2018-08-10T01:57:00.184Z,84.81
2018-08-10T01:58:00.122Z,84.14
2018-08-10T01:59:00.135Z,84.61
2018-08-10T02:00:00.150Z,84.71
2018-08-10T02:01:00.166Z,84.52
2018-08-10T02:02:00.183Z,84.23
2018-08-10T02:03:00.197Z,84.14
2018-08-10T02:04:00.217Z,84.33
2018-08-10T02:05:00.228Z,84.33
2018-08-10T02:06:00.241Z,84.23
2018-08-10T02:07:00.258Z,84.91
2018-08-10T02:08:00.287Z,84.23
2018-08-10T02:09:00.291Z,84.42
2018-08-10T02:10:00.302Z,84.61
2018-08-10T02:11:00.320Z,84.14
2018-08-10T02:12:00.337Z,84.14
2018-08-10T02:13:00.364Z,84.33
2018-08-10T02:14:00.364Z,84.04
2018-08-10T02:15:00.381Z,83.94
2018-08-10T02:16:00.398Z,84.81
2018-08-10T02:17:00.411Z,85.77
2018-08-10T02:18:00.430Z,85.86
2018-08-10T02:19:00.440Z,86.54
2018-08-10T02:20:00.456Z,86.15
2018-08-10T02:21:00.472Z,85.67
2018-08-10T02:22:00.490Z,87.68
2018-08-10T02:23:00.502Z,88.74
2018-08-10T02:24:00.518Z,89.03
2018-08-10T02:25:00.533Z,86.54
2018-08-10T02:26:00.546Z,86.68
2018-08-10T02:27:00.576Z,87.26
2018-08-10T02:28:00.578Z,87.84
2018-08-10T02:29:00.637Z,88.98
2018-08-10T02:30:00.636Z,89.94
2018-08-10T02:31:00.630Z,88.51
2018-08-10T02:32:00.660Z,87.64
2018-08-10T02:33:00.658Z,87.26
2018-08-10T02:34:00.669Z,86.97
2018-08-10T02:35:00.688Z,87.16
2018-08-10T02:36:00.700Z,87.07
2018-08-10T02:37:00.721Z,87.07
2018-08-10T02:38:00.731Z,86.11
2018-08-10T02:39:00.745Z,86.11
2018-08-10T02:40:00.965Z,85.53
2018-08-10T02:41:00.777Z,85.82
2018-08-10T02:42:00.790Z,85.25
2018-08-10T02:43:00.807Z,85.63
2018-08-10T02:44:00.821Z,85.44
2018-08-10T02:45:00.837Z,84.77
2018-08-10T02:46:00.851Z,84.95
2018-08-10T02:47:00.867Z,84.58
2018-08-10T02:48:00.884Z,84.77
2018-08-10T02:49:00.898Z,84.58
2018-08-10T02:50:00.937Z,84.09
2018-08-10T02:51:00.920Z,83.33
2018-08-10T02:52:00.938Z,82.56
2018-08-10T02:53:00.949Z,81.79
2018-08-10T02:54:01.115Z,82.56
2018-08-10T02:55:00.980Z,81.98
2018-08-10T02:56:00.995Z,82.27
2018-08-10T02:57:01.013Z,81.89
2018-08-10T02:58:01.026Z,82.75
2018-08-10T02:59:01.045Z,82.56
2018-08-10T03:00:01.057Z,82.46
2018-08-10T03:01:01.074Z,82.27
2018-08-10T03:02:01.155Z,82.56
2018-08-10T03:03:01.129Z,83.04
2018-08-10T03:04:01.127Z,82.18
2018-08-10T03:05:01.131Z,81.98
2018-08-10T03:06:01.145Z,82.65
2018-08-10T03:07:01.164Z,82.46
2018-08-10T03:08:01.177Z,82.56
2018-08-10T03:09:01.193Z,82.27
2018-08-10T03:10:01.357Z,82.08
2018-08-10T03:11:01.371Z,82.46
2018-08-10T03:12:01.236Z,82.46
2018-08-10T03:13:01.252Z,82.56
2018-08-10T03:14:01.420Z,81.79
2018-08-10T03:15:01.282Z,82.08
2018-08-10T03:16:01.297Z,81.79
2018-08-10T03:17:01.311Z,82.46
2018-08-10T03:18:01.330Z,82.46
2018-08-10T03:19:01.351Z,82.37
2018-08-10T03:20:01.357Z,82.18
2018-08-10T03:21:01.371Z,82.56
2018-08-10T03:22:01.552Z,82.46
2018-08-10T03:23:01.404Z,81.98
2018-08-10T03:24:01.421Z,82.37
2018-08-10T03:25:01.585Z,82.56
2018-08-10T03:26:01.452Z,82.56
2018-08-10T03:27:01.468Z,82.46
2018-08-10T03:28:01.481Z,82.18
2018-08-10T03:29:01.492Z,81.98
2018-08-10T03:30:01.509Z,81.79
2018-08-10T03:31:01.523Z,81.98
2018-08-10T03:32:01.540Z,81.51
2018-08-10T03:33:01.555Z,81.79
2018-08-10T03:34:01.575Z,81.79
2018-08-10T03:35:01.585Z,81.79
2018-08-10T03:36:01.600Z,82.37
2018-08-10T03:37:01.614Z,81.60
2018-08-10T03:38:01.628Z,82.27
2018-08-10T03:39:01.644Z,82.37
2018-08-10T03:40:01.660Z,82.27
2018-08-10T03:41:01.677Z,82.04
2018-08-10T03:42:01.700Z,82.56
2018-08-10T03:43:01.708Z,82.18
2018-08-10T03:44:01.728Z,82.27
2018-08-10T03:45:01.744Z,82.52
2018-08-10T03:46:01.749Z,83.09
2018-08-10T03:47:01.765Z,83.00
2018-08-10T03:48:01.784Z,82.62
2018-08-10T03:49:01.793Z,82.62
2018-08-10T03:50:01.817Z,83.00
2018-08-10T03:51:01.830Z,83.00
2018-08-10T03:52:01.842Z,83.00
2018-08-10T03:53:01.854Z,83.38
2018-08-10T03:54:01.883Z,82.81
2018-08-10T03:55:01.885Z,83.09
2018-08-10T03:56:01.902Z,82.81
2018-08-10T03:57:01.914Z,82.81
2018-08-10T03:58:01.942Z,83.58
2018-08-10T03:59:01.946Z,83.76
2018-08-10T04:00:01.960Z,83.86
2018-08-10T04:01:01.976Z,83.86
2018-08-10T04:02:01.990Z,83.76
2018-08-10T04:03:02.005Z,83.58
2018-08-10T04:04:02.025Z,83.76
2018-08-10T04:05:02.035Z,83.76
2018-08-10T04:06:02.083Z,83.95
2018-08-10T04:07:02.069Z,84.34
2018-08-10T04:08:02.090Z,84.25
2018-08-10T04:09:02.093Z,84.49
2018-08-10T04:10:02.112Z,84.49
2018-08-10T04:11:02.125Z,84.58
2018-08-10T04:12:02.142Z,84.58
2018-08-10T04:13:02.160Z,85.06
2018-08-10T04:14:02.183Z,85.16
2018-08-10T04:15:02.194Z,85.16
2018-08-10T04:16:02.199Z,85.25
2018-08-10T04:17:02.218Z,85.25
2018-08-10T04:18:02.229Z,84.97
2018-08-10T04:19:02.256Z,84.88
2018-08-10T04:20:02.264Z,85.25
2018-08-10T04:21:02.280Z,85.16
2018-08-10T04:22:02.292Z,85.39
2018-08-10T04:23:02.306Z,85.16
2018-08-10T04:24:02.344Z,84.97
2018-08-10T04:25:02.343Z,84.97
2018-08-10T04:26:02.350Z,84.88
2018-08-10T04:27:02.364Z,85.35
2018-08-10T04:28:02.415Z,85.45
2018-08-10T04:29:02.797Z,85.16
2018-08-10T04:30:02.518Z,85.83
2018-08-10T04:31:02.475Z,85.93
2018-08-10T04:32:02.649Z,86.12
2018-08-10T04:33:02.462Z,86.98
2018-08-10T04:34:02.475Z,86.02
2018-08-10T04:35:02.484Z,86.02
2018-08-10T04:36:04.774Z,85.54
2018-08-10T04:37:02.513Z,85.74
2018-08-10T04:38:02.534Z,85.93
2018-08-10T04:39:02.544Z,85.83
2018-08-10T04:40:02.568Z,86.02
2018-08-10T04:41:02.584Z,86.02
2018-08-10T04:42:02.594Z,86.60
2018-08-10T04:43:02.605Z,86.60
2018-08-10T04:44:02.655Z,86.88
2018-08-10T04:45:02.640Z,86.60
2018-08-10T04:46:02.658Z,87.08
2018-08-10T04:47:02.708Z,86.98
2018-08-10T04:48:02.696Z,87.37
2018-08-10T04:49:02.694Z,87.08
2018-08-10T04:50:02.720Z,87.17
2018-08-10T04:51:02.741Z,86.69
2018-08-10T04:52:02.741Z,86.88
2018-08-10T04:53:02.752Z,86.98
2018-08-10T04:54:02.771Z,86.50
2018-08-10T04:55:02.826Z,86.41
2018-08-10T04:56:02.797Z,86.02
2018-08-10T04:57:02.810Z,86.98
2018-08-10T04:58:02.845Z,86.69
2018-08-10T04:59:02.861Z,87.08
2018-08-10T05:00:02.957Z,86.69
2018-08-10T05:01:02.921Z,86.69
2018-08-10T05:02:02.898Z,86.79
2018-08-10T05:03:02.902Z,86.12
2018-08-10T05:04:04.324Z,85.83
2018-08-10T05:05:02.929Z,86.41
2018-08-10T05:06:02.948Z,85.74
2018-08-10T05:07:02.970Z,86.21
2018-08-10T05:08:03.012Z,86.98
2018-08-10T05:09:02.995Z,86.41
2018-08-10T05:10:03.003Z,86.31
2018-08-10T05:11:03.021Z,86.02
2018-08-10T05:12:03.037Z,85.93
2018-08-10T05:14:03.104Z,85.64
2018-08-10T05:15:03.116Z,85.74
2018-08-10T05:16:03.112Z,85.54
2018-08-10T05:17:03.121Z,86.07
2018-08-10T05:18:03.123Z,86.02
2018-08-10T05:19:03.146Z,85.83
2018-08-10T05:20:03.161Z,86.31
2018-08-10T05:21:03.168Z,86.41
2018-08-10T05:22:03.183Z,86.79
2018-08-10T05:23:03.199Z,86.02
2018-08-10T05:24:03.237Z,86.02
2018-08-10T05:25:03.259Z,86.02
2018-08-10T05:26:03.346Z,86.45
2018-08-10T05:27:03.268Z,86.88
2018-08-10T05:28:03.291Z,86.07
2018-08-10T05:29:03.288Z,85.88
2018-08-10T05:30:03.308Z,85.88
2018-08-10T05:31:03.318Z,86.16
2018-08-10T05:32:03.335Z,86.16
2018-08-10T05:33:03.346Z,86.35
2018-08-10T05:34:03.366Z,86.07
2018-08-10T05:35:03.379Z,86.25
2018-08-10T05:36:04.337Z,85.78
2018-08-10T05:37:03.562Z,86.16
2018-08-10T05:38:03.424Z,86.16
2018-08-10T05:39:03.673Z,86.25
2018-08-10T05:40:03.521Z,85.49
2018-08-10T05:41:03.854Z,85.78
2018-08-10T05:42:03.578Z,85.97
2018-08-10T05:43:03.762Z,85.49
2018-08-10T05:44:04.029Z,85.88
2018-08-10T05:45:03.723Z,85.30
2018-08-10T05:46:03.937Z,85.49
2018-08-10T05:47:03.685Z,85.21
2018-08-10T05:48:03.791Z,85.68
2018-08-10T05:49:03.680Z,86.07
2018-08-10T05:50:03.757Z,85.97
2018-08-10T05:51:04.060Z,85.78
2018-08-10T05:52:03.651Z,85.39
2018-08-10T05:53:03.848Z,85.97
2018-08-10T05:54:04.223Z,85.97
2018-08-10T05:56:03.711Z,85.78
2018-08-10T05:57:03.781Z,85.58
2018-08-10T05:58:03.951Z,85.58
2018-08-10T05:59:03.750Z,85.01
2018-08-10T06:00:03.753Z,85.01
2018-08-10T06:01:03.773Z,85.44
2018-08-10T06:02:03.783Z,84.82
2018-08-10T06:03:03.802Z,84.63
2018-08-10T06:04:03.919Z,84.77
2018-08-10T06:05:03.838Z,84.86
2018-08-10T06:06:03.844Z,85.11
2018-08-10T06:07:03.859Z,84.63
2018-08-10T06:08:03.873Z,84.86
2018-08-10T06:09:03.887Z,85.44
2018-08-10T06:10:03.902Z,84.77
2018-08-10T06:11:03.920Z,84.00
2018-08-10T06:12:03.936Z,83.71
2018-08-10T06:13:03.976Z,84.00
2018-08-10T06:14:03.962Z,83.27
2018-08-10T06:15:04.070Z,83.85
2018-08-10T06:16:04.004Z,82.79
2018-08-10T06:17:04.447Z,83.47
2018-08-10T06:18:04.372Z,82.89
2018-08-10T06:19:04.425Z,82.79
2018-08-10T06:20:04.495Z,82.70
2018-08-10T06:21:04.281Z,82.70
2018-08-10T06:22:04.099Z,82.51
2018-08-10T06:23:04.122Z,81.93
2018-08-10T06:24:04.354Z,81.64
2018-08-10T06:25:04.154Z,81.84
2018-08-10T06:26:04.176Z,81.45
2018-08-10T06:27:04.804Z,81.84
2018-08-10T06:28:04.199Z,81.74
2018-08-10T06:29:04.531Z,81.64
2018-08-10T06:30:04.344Z,81.45
2018-08-10T06:31:04.561Z,81.45
2018-08-10T06:32:04.896Z,81.26
2018-08-10T06:33:04.582Z,81.84
2018-08-10T06:34:04.881Z,80.78
2018-08-10T06:35:04.400Z,81.07
2018-08-10T06:36:04.296Z,80.40
2018-08-10T06:37:04.313Z,80.15
2018-08-10T06:38:04.360Z,80.01
2018-08-10T06:39:04.391Z,79.86
2018-08-10T06:40:04.631Z,78.90
2018-08-10T06:41:04.420Z,78.90
2018-08-10T06:42:04.406Z,78.61
2018-08-10T06:43:04.400Z,78.90
2018-08-10T06:44:04.429Z,78.90
2018-08-10T06:45:04.626Z,79.09
2018-08-10T06:46:04.445Z,78.52
2018-08-10T06:47:04.496Z,78.52
2018-08-10T06:48:04.494Z,77.94
2018-08-10T06:49:04.493Z,77.94
2018-08-10T06:50:04.521Z,77.94
2018-08-10T06:51:04.582Z,78.23
2018-08-10T06:52:04.536Z,77.46
2018-08-10T06:53:04.552Z,77.26
2018-08-10T06:54:04.577Z,77.36
2018-08-10T06:55:04.828Z,77.50
2018-08-10T06:56:04.622Z,78.13
2018-08-10T06:57:04.695Z,77.40
2018-08-10T06:58:04.658Z,77.59
2018-08-10T06:59:04.642Z,77.50
2018-08-10T07:00:04.660Z,77.50
2018-08-10T07:01:04.743Z,76.82
2018-08-10T07:02:04.691Z,76.82
2018-08-10T07:03:04.712Z,77.11
2018-08-10T07:04:04.719Z,76.54
2018-08-10T07:05:04.939Z,76.82
2018-08-10T07:06:04.768Z,76.44
2018-08-10T07:07:04.770Z,76.44
2018-08-10T07:08:04.793Z,76.15
2018-08-10T07:09:04.802Z,76.06
2018-08-10T07:10:05.023Z,76.92
2018-08-10T07:11:04.839Z,76.54
2018-08-10T07:12:04.846Z,76.06
2018-08-10T07:13:04.949Z,75.77
2018-08-10T07:14:04.876Z,75.87
2018-08-10T07:15:04.889Z,75.67
2018-08-10T07:16:05.034Z,75.20
2018-08-10T07:17:04.920Z,74.90
2018-08-10T07:18:04.934Z,75.29
2018-08-10T07:19:04.949Z,74.43
2018-08-10T07:20:04.969Z,75.20
2018-08-10T07:21:04.980Z,75.42
2018-08-10T07:22:04.995Z,75.81
2018-08-10T07:23:05.012Z,75.71
2018-08-10T07:24:05.027Z,74.55
2018-08-10T07:25:05.091Z,74.85
2018-08-10T07:26:05.061Z,74.08
2018-08-10T07:27:05.107Z,73.69
2018-08-10T07:28:05.099Z,73.41
2018-08-10T07:29:05.105Z,73.69
2018-08-10T07:30:05.126Z,74.08
2018-08-10T07:31:05.150Z,74.37
2018-08-10T07:32:05.157Z,73.11
2018-08-10T07:33:05.172Z,73.35
2018-08-10T07:34:05.193Z,74.02
2018-08-10T07:35:05.199Z,74.11
2018-08-10T07:36:05.212Z,73.44
2018-08-10T07:37:05.243Z,73.92
2018-08-10T07:38:05.617Z,72.96
2018-08-10T07:39:05.346Z,72.86
2018-08-10T07:40:05.287Z,72.48
2018-08-10T07:41:05.293Z,72.96
2018-08-10T07:42:05.358Z,72.96
2018-08-10T07:43:05.911Z,73.15
2018-08-10T07:44:05.339Z,72.86
2018-08-10T07:45:05.356Z,73.44
2018-08-10T07:46:05.369Z,72.96
2018-08-10T07:47:05.746Z,73.44
2018-08-10T07:48:05.401Z,72.77
2018-08-10T07:49:05.425Z,72.29
2018-08-10T07:50:05.431Z,71.33
2018-08-10T07:51:05.498Z,70.75
2018-08-10T07:52:05.526Z,70.07
2018-08-10T07:53:05.521Z,69.12
2018-08-10T07:54:05.546Z,68.83
2018-08-10T07:55:05.528Z,68.35
2018-08-10T07:56:05.528Z,69.02
2018-08-10T07:57:05.545Z,69.60
2018-08-10T07:58:05.586Z,69.60
2018-08-10T07:59:05.616Z,69.98
2018-08-10T08:00:05.618Z,69.21
2018-08-10T08:01:05.606Z,69.89
2018-08-10T08:02:05.650Z,69.98
2018-08-10T08:03:05.657Z,70.07
2018-08-10T08:04:05.723Z,70.11
2018-08-10T08:05:05.689Z,69.73
2018-08-10T08:06:05.909Z,70.40
2018-08-10T08:07:05.737Z,70.40
2018-08-10T08:08:05.786Z,70.30
2018-08-10T08:09:05.746Z,70.11
2018-08-10T08:10:05.746Z,70.30
2018-08-10T08:11:05.762Z,69.15
2018-08-10T08:12:05.796Z,68.41
2018-08-10T08:13:05.805Z,68.03
2018-08-10T08:14:05.822Z,66.78
2018-08-10T08:15:05.848Z,66.78
2018-08-10T08:16:05.866Z,66.97
2018-08-10T08:17:05.862Z,67.16
2018-08-10T08:18:05.962Z,67.00
2018-08-10T08:19:05.891Z,66.52
2018-08-10T08:20:05.916Z,66.49
2018-08-10T08:21:06.117Z,67.07
2018-08-10T08:22:05.932Z,67.26
2018-08-10T08:23:05.950Z,67.55
2018-08-10T08:24:06.124Z,66.78
2018-08-10T08:25:06.194Z,66.78
2018-08-10T08:26:06.013Z,67.16
2018-08-10T08:27:06.087Z,66.20
2018-08-10T08:28:06.046Z,66.88
2018-08-10T08:29:06.065Z,66.68
2018-08-10T08:30:06.060Z,66.78
2018-08-10T08:31:06.092Z,67.07
2018-08-10T08:33:06.119Z,67.35
2018-08-10T08:34:06.123Z,67.55
2018-08-10T08:35:06.176Z,68.03
2018-08-10T08:36:06.168Z,68.03
2018-08-10T08:37:06.290Z,67.77
2018-08-10T08:38:06.469Z,66.91
2018-08-10T08:39:06.293Z,67.07
2018-08-10T08:40:06.485Z,66.81
2018-08-10T08:41:06.350Z,66.52
2018-08-10T08:42:06.251Z,66.42
2018-08-10T08:43:06.271Z,66.49
2018-08-10T08:44:06.284Z,67.00
2018-08-10T08:45:06.324Z,66.04
2018-08-10T08:46:06.556Z,65.17
2018-08-10T08:47:06.688Z,65.17
2018-08-10T08:48:06.483Z,65.94
2018-08-10T08:49:06.426Z,64.21
2018-08-10T08:50:06.622Z,63.76
2018-08-10T08:51:06.935Z,63.67
2018-08-10T08:52:06.412Z,63.47
2018-08-10T08:53:06.427Z,62.99
2018-08-10T08:54:06.502Z,62.70
2018-08-10T08:55:06.516Z,62.51
2018-08-10T08:56:06.529Z,61.83
2018-08-10T08:57:06.540Z,62.51
2018-08-10T08:58:06.508Z,62.99
2018-08-10T08:59:06.524Z,62.41
2018-08-10T09:00:06.565Z,62.51
2018-08-10T09:01:06.584Z,61.55
2018-08-10T09:02:06.693Z,60.87
2018-08-10T09:03:06.657Z,61.10
2018-08-10T09:04:06.669Z,61.29
2018-08-10T09:05:07.488Z,61.48
2018-08-10T09:06:06.666Z,60.61
2018-08-10T09:07:06.666Z,61.38
2018-08-10T09:08:06.749Z,62.25
2018-08-10T09:09:06.725Z,61.58
2018-08-10T09:10:06.759Z,62.03
2018-08-10T09:11:06.749Z,62.51
2018-08-10T09:12:06.746Z,62.51
2018-08-10T09:13:06.765Z,62.45
2018-08-10T09:14:06.800Z,61.55
2018-08-10T09:15:06.784Z,61.07
2018-08-10T09:16:06.798Z,61.45
2018-08-10T09:17:06.969Z,61.87
2018-08-10T09:18:06.830Z,62.83
2018-08-10T09:19:06.847Z,62.70
2018-08-10T09:20:06.913Z,62.15
2018-08-10T09:21:06.881Z,61.93
2018-08-10T09:22:06.895Z,62.60
2018-08-10T09:23:06.917Z,62.73
2018-08-10T09:24:06.932Z,62.06
2018-08-10T09:25:07.007Z,61.83
2018-08-10T09:26:06.969Z,61.74
2018-08-10T09:27:07.193Z,62.70
2018-08-10T09:28:06.993Z,63.60
2018-08-10T09:29:07.335Z,62.73
2018-08-10T09:30:07.250Z,62.63
2018-08-10T09:31:07.054Z,62.51
2018-08-10T09:32:07.070Z,63.18
2018-08-10T09:34:07.110Z,63.67
2018-08-10T09:35:07.107Z,63.47
2018-08-10T09:36:07.125Z,63.76
2018-08-10T09:37:07.163Z,63.70
2018-08-10T09:38:07.170Z,62.54
2018-08-10T09:39:07.389Z,62.25
2018-08-10T09:40:07.936Z,62.73
2018-08-10T09:41:07.439Z,63.41
2018-08-10T09:42:07.532Z,63.79
2018-08-10T09:43:07.872Z,62.63
2018-08-10T09:44:07.430Z,63.98
2018-08-10T09:45:07.288Z,63.85
2018-08-10T09:46:07.284Z,64.73
2018-08-10T09:47:07.322Z,64.12
2018-08-10T09:48:10.353Z,65.37
2018-08-10T09:49:09.389Z,65.56
2018-08-10T09:50:10.502Z,65.94
2018-08-10T09:51:07.828Z,65.37
2018-08-10T09:52:10.129Z,64.69
2018-08-10T09:53:08.088Z,64.69
2018-08-10T09:54:07.411Z,62.99
2018-08-10T09:55:07.428Z,64.43
2018-08-10T09:56:07.448Z,63.70
2018-08-10T09:57:07.464Z,63.02
2018-08-10T09:58:07.477Z,62.48
2018-08-10T09:59:07.497Z,62.28
2018-08-10T10:00:07.514Z,60.96
2018-08-10T10:01:07.674Z,61.64
2018-08-10T10:02:07.623Z,61.16
2018-08-10T10:03:07.563Z,60.55
2018-08-10T10:04:07.580Z,60.38
2018-08-10T10:05:07.590Z,60.96
2018-08-10T10:06:07.623Z,60.96
2018-08-10T10:07:07.641Z,60.28
2018-08-10T10:08:07.641Z,60.71
2018-08-10T10:09:07.728Z,58.17
2018-08-10T10:10:08.238Z,59.16
2018-08-10T10:11:08.256Z,59.61
2018-08-10T10:12:07.703Z,59.32
2018-08-10T10:13:07.732Z,58.65
2018-08-10T10:14:07.740Z,58.26
2018-08-10T10:15:07.753Z,59.42
2018-08-10T10:16:07.775Z,58.55
2018-08-10T10:17:07.790Z,59.32
2018-08-10T10:18:08.032Z,58.77
2018-08-10T10:19:07.823Z,57.29
2018-08-10T10:20:07.836Z,57.42
2018-08-10T10:21:08.064Z,56.16
2018-08-10T10:22:07.870Z,54.84
2018-08-10T10:23:07.965Z,55.13
2018-08-10T10:24:07.902Z,55.13
2018-08-10T10:25:08.738Z,53.59
2018-08-10T10:26:07.937Z,54.27
2018-08-10T10:27:07.999Z,54.75
2018-08-10T10:28:07.969Z,54.36
2018-08-10T10:29:08.012Z,53.52
2018-08-10T10:30:08.460Z,52.94
2018-08-10T10:31:08.035Z,52.65
2018-08-10T10:32:08.037Z,50.43
2018-08-10T10:33:08.053Z,49.65
2018-08-10T10:34:08.076Z,49.95
2018-08-10T10:35:08.144Z,50.43
2018-08-10T10:36:08.108Z,49.95
2018-08-10T10:37:08.177Z,50.81
2018-08-10T10:38:08.141Z,51.29
2018-08-10T10:39:08.156Z,51.01
2018-08-10T10:40:08.171Z,50.91
2018-08-10T10:41:08.195Z,51.49
2018-08-10T10:42:08.277Z,52.65
2018-08-10T10:43:08.270Z,52.45
2018-08-10T10:44:08.243Z,53.33
2018-08-10T10:45:08.258Z,51.68
2018-08-10T10:46:08.275Z,51.10
2018-08-10T10:47:08.290Z,52.14
2018-08-10T10:48:08.741Z,52.72
2018-08-10T10:49:08.440Z,51.65
2018-08-10T10:50:08.554Z,51.75
2018-08-10T10:51:08.372Z,52.81
2018-08-10T10:52:08.973Z,51.85
2018-08-10T10:53:08.392Z,51.56
2018-08-10T10:54:08.409Z,52.75
2018-08-10T10:55:08.428Z,51.59
2018-08-10T10:56:08.515Z,48.42
2018-08-10T10:57:08.462Z,48.25
2018-08-10T10:58:08.479Z,46.90
2018-08-10T10:59:08.503Z,48.06
2018-08-10T11:00:08.515Z,45.83
2018-08-10T11:01:08.530Z,46.30
2018-08-10T11:02:08.548Z,47.38
2018-08-10T11:03:08.567Z,47.48
2018-08-10T11:04:08.580Z,45.35
2018-08-10T11:05:08.599Z,45.91
2018-08-10T11:06:08.615Z,48.35
2018-08-10T11:07:08.635Z,47.26
2018-08-10T11:08:08.654Z,48.81
2018-08-10T11:09:08.672Z,48.32
2018-08-10T11:10:08.685Z,46.20
2018-08-10T11:11:08.704Z,43.68
2018-08-10T11:12:08.725Z,43.68
2018-08-10T11:13:08.739Z,44.65
2018-08-10T11:14:08.759Z,45.14
2018-08-10T11:15:08.772Z,45.25
2018-08-10T11:16:08.861Z,44.38
2018-08-10T11:17:09.579Z,45.45
2018-08-10T11:18:09.150Z,44.38
2018-08-10T11:19:08.839Z,43.41
2018-08-10T11:20:08.875Z,45.06
2018-08-10T11:21:08.874Z,43.88
2018-08-10T11:22:08.892Z,44.63
2018-08-10T11:23:08.909Z,45.89
2018-08-10T11:24:08.972Z,45.52
2018-08-10T11:25:09.009Z,45.23
2018-08-10T11:26:09.065Z,45.33
2018-08-10T11:27:08.980Z,45.35
2018-08-10T11:28:08.993Z,45.45
2018-08-10T11:29:09.016Z,44.89
2018-08-10T11:30:09.038Z,45.28
2018-08-10T11:31:09.044Z,45.28
2018-08-10T11:32:09.110Z,43.63
2018-08-10T11:33:09.078Z,44.13
2018-08-10T11:34:09.250Z,46.08
2018-08-10T11:35:09.114Z,42.68
2018-08-10T11:36:09.130Z,42.40
2018-08-10T11:37:09.155Z,43.34
2018-08-10T11:38:09.167Z,41.91
2018-08-10T11:39:09.183Z,41.82
2018-08-10T11:40:09.200Z,41.82
2018-08-10T11:41:09.216Z,42.30
2018-08-10T11:42:09.242Z,42.96
2018-08-10T11:43:09.252Z,43.23
2018-08-10T11:44:09.267Z,44.70
2018-08-10T11:45:09.286Z,43.92
2018-08-10T11:46:09.301Z,43.54
2018-08-10T11:47:09.330Z,42.18
2018-08-10T11:48:09.341Z,41.21
2018-08-10T11:49:09.355Z,40.81
2018-08-10T11:50:09.467Z,41.31
2018-08-10T11:51:09.395Z,41.31
2018-08-10T11:52:09.407Z,41.70
2018-08-10T11:53:09.424Z,42.66
2018-08-10T11:54:09.448Z,41.99
2018-08-10T11:55:09.502Z,41.70
2018-08-10T11:56:09.478Z,41.89
2018-08-10T11:57:09.517Z,41.14
2018-08-10T11:58:09.572Z,41.04
2018-08-10T11:59:09.528Z,40.46
2018-08-10T12:00:09.549Z,39.29
2018-08-10T12:01:09.568Z,39.88
2018-08-10T12:02:09.580Z,39.97
2018-08-10T12:03:09.605Z,40.26
2018-08-10T12:04:09.613Z,40.63
2018-08-10T12:05:09.627Z,41.50
2018-08-10T12:06:09.692Z,42.10
2018-08-10T12:07:11.718Z,43.55
2018-08-10T12:08:09.994Z,43.46
2018-08-10T12:09:09.739Z,42.90
2018-08-10T12:10:09.737Z,42.03
2018-08-10T12:11:09.737Z,42.51
2018-08-10T12:12:09.751Z,40.09
2018-08-10T12:13:13.161Z,39.59
2018-08-10T12:14:13.445Z,40.92
2018-08-10T12:15:11.114Z,41.41
2018-08-10T12:16:13.010Z,42.76
2018-08-10T12:17:09.853Z,42.96
2018-08-10T12:18:09.855Z,44.70
2018-08-10T12:19:09.951Z,43.05
2018-08-10T12:20:09.892Z,43.17
2018-08-10T12:21:09.911Z,41.52
2018-08-10T12:22:09.954Z,42.32
2018-08-10T12:23:09.954Z,40.09
2018-08-10T12:24:09.962Z,40.36
2018-08-10T12:25:09.975Z,42.13
2018-08-10T12:26:10.007Z,41.55
2018-08-10T12:27:10.014Z,41.83
2018-08-10T12:28:10.030Z,42.03
2018-08-10T12:29:10.047Z,42.03
2018-08-10T12:30:10.082Z,41.55
2018-08-10T12:31:10.085Z,41.11
2018-08-10T12:32:10.100Z,43.34
2018-08-10T12:33:10.116Z,42.30
2018-08-10T12:34:10.136Z,42.10
2018-08-10T12:35:10.151Z,40.65
2018-08-10T12:36:10.447Z,41.55
2018-08-10T12:37:10.194Z,43.19
2018-08-10T12:38:10.207Z,41.64
2018-08-10T12:39:10.223Z,38.07
2018-08-10T12:40:10.241Z,38.56
2018-08-10T12:41:10.258Z,41.27
2018-08-10T12:42:10.276Z,39.74
2018-08-10T12:43:10.294Z,38.58
2018-08-10T12:44:10.311Z,36.18
2018-08-10T12:45:10.440Z,35.48
2018-08-10T12:46:10.363Z,36.36
2018-08-10T12:47:10.486Z,35.21
2018-08-10T12:48:10.382Z,33.56
2018-08-10T12:49:10.400Z,36.08
2018-08-10T12:50:10.458Z,34.12
2018-08-10T12:51:10.443Z,35.46
2018-08-10T12:52:10.473Z,36.90
2018-08-10T12:53:10.632Z,37.75
2018-08-10T12:54:10.492Z,38.89
2018-08-10T12:55:10.514Z,38.02
2018-08-10T12:56:10.529Z,37.32
2018-08-10T12:57:10.553Z,38.00